sensor_id;sensor_type;location;lat;lon;timestamp;temperature;humidity
18541;DHT22;9400;50.924;5.328;2023-06-22T00:01:49;23.30;99.90
18541;DHT22;9400;50.924;5.328;2023-06-22T00:04:30;23.30;99.90
18541;DHT22;9400;50.924;5.328;2023-06-22T00:10:18;23.00;99.90
18541;DHT22;9400;50.924;5.328;2023-06-22T00:12:59;22.90;99.90
18541;DHT22;9400;50.924;5.328;2023-06-22T00:15:31;22.90;99.90
18541;DHT22;9400;50.924;5.328;2023-06-22T00:18:12;23.00;99.90
18541;DHT22;9400;50.924;5.328;2023-06-22T00:20:41;23.00;99.90
18541;DHT22;9400;50.924;5.328;2023-06-22T00:23:22;23.00;99.90
18541;DHT22;9400;50.924;5.328;2023-06-22T00:26:21;22.90;99.90
18541;DHT22;9400;50.924;5.328;2023-06-22T00:29:02;23.00;99.90
18541;DHT22;9400;50.924;5.328;2023-06-22T00:31:43;22.90;99.90
18541;DHT22;9400;50.924;5.328;2023-06-22T00:34:24;23.00;99.90
18541;DHT22;9400;50.924;5.328;2023-06-22T00:37:05;23.00;99.90
18541;DHT22;9400;50.924;5.328;2023-06-22T00:39:34;23.10;99.90
18541;DHT22;9400;50.924;5.328;2023-06-22T00:42:18;23.00;99.90
18541;DHT22;9400;50.924;5.328;2023-06-22T00:44:59;22.80;99.90
18541;DHT22;9400;50.924;5.328;2023-06-22T00:47:40;22.90;99.90
18541;DHT22;9400;50.924;5.328;2023-06-22T00:50:22;22.80;99.90
18541;DHT22;9400;50.924;5.328;2023-06-22T00:52:54;22.80;99.90
18541;DHT22;9400;50.924;5.328;2023-06-22T00:55:37;22.80;99.90
18541;DHT22;9400;50.924;5.328;2023-06-22T00:58:28;22.70;99.90
18541;DHT22;9400;50.924;5.328;2023-06-22T01:01:09;22.70;99.90
18541;DHT22;9400;50.924;5.328;2023-06-22T01:03:50;22.80;99.90
18541;DHT22;9400;50.924;5.328;2023-06-22T01:06:38;22.70;99.90
18541;DHT22;9400;50.924;5.328;2023-06-22T01:09:12;22.70;99.90
18541;DHT22;9400;50.924;5.328;2023-06-22T01:11:46;22.60;99.90
18541;DHT22;9400;50.924;5.328;2023-06-22T01:14:23;22.60;99.90
18541;DHT22;9400;50.924;5.328;2023-06-22T01:16:52;22.50;99.90
18541;DHT22;9400;50.924;5.328;2023-06-22T01:19:35;22.60;99.90
18541;DHT22;9400;50.924;5.328;2023-06-22T01:22:04;22.60;99.90
18541;DHT22;9400;50.924;5.328;2023-06-22T01:24:39;22.60;99.90
18541;DHT22;9400;50.924;5.328;2023-06-22T01:27:17;22.50;99.90
18541;DHT22;9400;50.924;5.328;2023-06-22T01:29:52;22.50;99.90
18541;DHT22;9400;50.924;5.328;2023-06-22T01:32:28;22.40;99.90
18541;DHT22;9400;50.924;5.328;2023-06-22T01:35:00;22.40;99.90
18541;DHT22;9400;50.924;5.328;2023-06-22T01:37:28;22.40;99.90
18541;DHT22;9400;50.924;5.328;2023-06-22T01:39:58;22.50;99.90
18541;DHT22;9400;50.924;5.328;2023-06-22T01:42:26;22.50;99.90
18541;DHT22;9400;50.924;5.328;2023-06-22T01:44:56;22.50;99.90
18541;DHT22;9400;50.924;5.328;2023-06-22T01:47:25;22.40;99.90
18541;DHT22;9400;50.924;5.328;2023-06-22T01:49:54;22.40;99.90
18541;DHT22;9400;50.924;5.328;2023-06-22T01:52:22;22.30;99.90
18541;DHT22;9400;50.924;5.328;2023-06-22T01:54:49;22.30;99.90
18541;DHT22;9400;50.924;5.328;2023-06-22T01:57:17;22.30;99.90
18541;DHT22;9400;50.924;5.328;2023-06-22T01:59:52;22.30;99.90
18541;DHT22;9400;50.924;5.328;2023-06-22T02:02:27;22.20;99.90
18541;DHT22;9400;50.924;5.328;2023-06-22T02:04:58;22.20;99.90
18541;DHT22;9400;50.924;5.328;2023-06-22T02:07:31;22.10;99.90
18541;DHT22;9400;50.924;5.328;2023-06-22T02:10:02;22.20;99.90
18541;DHT22;9400;50.924;5.328;2023-06-22T02:12:31;22.20;99.90
18541;DHT22;9400;50.924;5.328;2023-06-22T02:14:59;22.20;99.90
18541;DHT22;9400;50.924;5.328;2023-06-22T02:17:29;22.10;99.90
18541;DHT22;9400;50.924;5.328;2023-06-22T02:19:58;22.20;99.90
18541;DHT22;9400;50.924;5.328;2023-06-22T02:22:26;22.20;99.90
18541;DHT22;9400;50.924;5.328;2023-06-22T02:24:54;22.10;99.90
18541;DHT22;9400;50.924;5.328;2023-06-22T02:27:21;22.00;99.90
18541;DHT22;9400;50.924;5.328;2023-06-22T02:29:49;22.00;99.90
18541;DHT22;9400;50.924;5.328;2023-06-22T02:32:17;22.10;99.90
18541;DHT22;9400;50.924;5.328;2023-06-22T02:34:47;22.10;99.90
18541;DHT22;9400;50.924;5.328;2023-06-22T02:37:15;22.00;99.90
18541;DHT22;9400;50.924;5.328;2023-06-22T02:39:42;21.90;99.90
18541;DHT22;9400;50.924;5.328;2023-06-22T02:42:10;21.80;99.90
18541;DHT22;9400;50.924;5.328;2023-06-22T02:44:37;21.80;99.90
18541;DHT22;9400;50.924;5.328;2023-06-22T02:47:05;21.90;99.90
18541;DHT22;9400;50.924;5.328;2023-06-22T02:49:33;22.00;99.90
18541;DHT22;9400;50.924;5.328;2023-06-22T02:52:03;21.90;99.90
18541;DHT22;9400;50.924;5.328;2023-06-22T02:54:30;21.90;99.90
18541;DHT22;9400;50.924;5.328;2023-06-22T02:56:59;21.70;99.90
18541;DHT22;9400;50.924;5.328;2023-06-22T02:59:29;21.70;99.90
18541;DHT22;9400;50.924;5.328;2023-06-22T03:01:57;21.60;99.90
18541;DHT22;9400;50.924;5.328;2023-06-22T03:04:26;21.50;99.90
18541;DHT22;9400;50.924;5.328;2023-06-22T03:06:54;21.50;99.90
18541;DHT22;9400;50.924;5.328;2023-06-22T03:09:26;21.50;99.90
18541;DHT22;9400;50.924;5.328;2023-06-22T03:11:55;21.40;99.90
18541;DHT22;9400;50.924;5.328;2023-06-22T03:14:23;21.40;99.90
18541;DHT22;9400;50.924;5.328;2023-06-22T03:16:51;21.40;99.90
18541;DHT22;9400;50.924;5.328;2023-06-22T03:19:18;21.40;99.90
18541;DHT22;9400;50.924;5.328;2023-06-22T03:21:48;21.30;99.90
18541;DHT22;9400;50.924;5.328;2023-06-22T03:24:16;21.20;99.90
18541;DHT22;9400;50.924;5.328;2023-06-22T03:26:44;21.10;99.90
18541;DHT22;9400;50.924;5.328;2023-06-22T03:29:13;21.10;99.90
18541;DHT22;9400;50.924;5.328;2023-06-22T03:31:41;21.20;99.90
18541;DHT22;9400;50.924;5.328;2023-06-22T03:34:09;21.20;99.90
18541;DHT22;9400;50.924;5.328;2023-06-22T03:36:36;21.30;99.90
18541;DHT22;9400;50.924;5.328;2023-06-22T03:39:04;21.30;99.90
18541;DHT22;9400;50.924;5.328;2023-06-22T03:41:31;21.20;99.90
18541;DHT22;9400;50.924;5.328;2023-06-22T03:44:00;21.30;99.90
18541;DHT22;9400;50.924;5.328;2023-06-22T03:46:27;21.40;99.90
18541;DHT22;9400;50.924;5.328;2023-06-22T03:48:55;21.30;99.90
18541;DHT22;9400;50.924;5.328;2023-06-22T03:51:23;21.50;99.90
18541;DHT22;9400;50.924;5.328;2023-06-22T03:53:50;21.40;99.90
18541;DHT22;9400;50.924;5.328;2023-06-22T03:56:17;21.40;99.90
18541;DHT22;9400;50.924;5.328;2023-06-22T03:58:47;21.50;99.90
18541;DHT22;9400;50.924;5.328;2023-06-22T04:01:16;21.60;99.90
18541;DHT22;9400;50.924;5.328;2023-06-22T04:03:44;21.70;99.90
18541;DHT22;9400;50.924;5.328;2023-06-22T04:06:13;21.70;99.90
18541;DHT22;9400;50.924;5.328;2023-06-22T04:08:41;21.60;99.90
18541;DHT22;9400;50.924;5.328;2023-06-22T04:11:09;21.80;99.90
18541;DHT22;9400;50.924;5.328;2023-06-22T04:13:37;21.80;99.90
18541;DHT22;9400;50.924;5.328;2023-06-22T04:16:04;21.80;99.90
18541;DHT22;9400;50.924;5.328;2023-06-22T04:18:33;21.60;99.90
18541;DHT22;9400;50.924;5.328;2023-06-22T04:21:01;21.70;99.90
18541;DHT22;9400;50.924;5.328;2023-06-22T04:23:29;21.80;99.90
18541;DHT22;9400;50.924;5.328;2023-06-22T04:25:56;21.80;99.90
18541;DHT22;9400;50.924;5.328;2023-06-22T04:28:24;21.70;99.90
18541;DHT22;9400;50.924;5.328;2023-06-22T04:30:51;21.70;99.90
18541;DHT22;9400;50.924;5.328;2023-06-22T04:33:19;21.80;99.90
18541;DHT22;9400;50.924;5.328;2023-06-22T04:35:48;21.80;99.90
18541;DHT22;9400;50.924;5.328;2023-06-22T04:38:16;21.90;99.90
18541;DHT22;9400;50.924;5.328;2023-06-22T04:40:44;21.90;99.90
18541;DHT22;9400;50.924;5.328;2023-06-22T04:43:12;21.80;99.90
18541;DHT22;9400;50.924;5.328;2023-06-22T04:45:39;21.80;99.90
18541;DHT22;9400;50.924;5.328;2023-06-22T04:48:07;21.90;99.90
18541;DHT22;9400;50.924;5.328;2023-06-22T04:50:36;21.80;99.90
18541;DHT22;9400;50.924;5.328;2023-06-22T04:53:06;21.80;99.90
18541;DHT22;9400;50.924;5.328;2023-06-22T04:55:35;21.70;99.90
18541;DHT22;9400;50.924;5.328;2023-06-22T04:58:03;21.70;99.90
18541;DHT22;9400;50.924;5.328;2023-06-22T05:00:31;21.50;99.90
18541;DHT22;9400;50.924;5.328;2023-06-22T05:03:02;21.50;99.90
18541;DHT22;9400;50.924;5.328;2023-06-22T05:05:30;21.30;99.90
18541;DHT22;9400;50.924;5.328;2023-06-22T05:07:57;21.10;99.90
18541;DHT22;9400;50.924;5.328;2023-06-22T05:10:28;20.90;99.90
18541;DHT22;9400;50.924;5.328;2023-06-22T05:12:55;21.00;99.90
18541;DHT22;9400;50.924;5.328;2023-06-22T05:15:23;21.00;99.90
18541;DHT22;9400;50.924;5.328;2023-06-22T05:17:53;21.00;99.90
18541;DHT22;9400;50.924;5.328;2023-06-22T05:20:21;21.10;99.90
18541;DHT22;9400;50.924;5.328;2023-06-22T05:22:48;21.10;99.90
18541;DHT22;9400;50.924;5.328;2023-06-22T05:25:16;21.00;99.90
18541;DHT22;9400;50.924;5.328;2023-06-22T05:27:45;20.90;99.90
18541;DHT22;9400;50.924;5.328;2023-06-22T05:30:13;20.90;99.90
18541;DHT22;9400;50.924;5.328;2023-06-22T05:32:42;21.00;99.90
18541;DHT22;9400;50.924;5.328;2023-06-22T05:35:10;20.80;99.90
18541;DHT22;9400;50.924;5.328;2023-06-22T05:37:37;20.80;99.90
18541;DHT22;9400;50.924;5.328;2023-06-22T05:40:06;20.80;99.90
18541;DHT22;9400;50.924;5.328;2023-06-22T05:42:35;21.00;99.90
18541;DHT22;9400;50.924;5.328;2023-06-22T05:45:05;21.00;99.90
18541;DHT22;9400;50.924;5.328;2023-06-22T05:47:34;21.10;99.90
18541;DHT22;9400;50.924;5.328;2023-06-22T05:50:01;21.00;99.90
18541;DHT22;9400;50.924;5.328;2023-06-22T05:52:32;21.00;99.90
18541;DHT22;9400;50.924;5.328;2023-06-22T05:55:01;21.20;99.90
18541;DHT22;9400;50.924;5.328;2023-06-22T05:57:29;21.30;99.90
18541;DHT22;9400;50.924;5.328;2023-06-22T05:59:57;21.30;99.90
18541;DHT22;9400;50.924;5.328;2023-06-22T06:02:26;21.30;99.90
18541;DHT22;9400;50.924;5.328;2023-06-22T06:04:53;21.30;99.90
18541;DHT22;9400;50.924;5.328;2023-06-22T06:07:21;21.40;99.90
18541;DHT22;9400;50.924;5.328;2023-06-22T06:09:49;21.30;99.90
18541;DHT22;9400;50.924;5.328;2023-06-22T06:12:18;21.30;99.90
18541;DHT22;9400;50.924;5.328;2023-06-22T06:14:45;21.40;99.90
18541;DHT22;9400;50.924;5.328;2023-06-22T06:20:55;21.40;99.90
18541;DHT22;9400;50.924;5.328;2023-06-22T06:23:39;21.30;99.90
18541;DHT22;9400;50.924;5.328;2023-06-22T06:26:08;21.50;99.90
18541;DHT22;9400;50.924;5.328;2023-06-22T06:28:49;21.60;99.90
18541;DHT22;9400;50.924;5.328;2023-06-22T06:31:30;21.70;99.90
18541;DHT22;9400;50.924;5.328;2023-06-22T06:33:57;21.60;99.90
18541;DHT22;9400;50.924;5.328;2023-06-22T06:36:29;21.70;99.90
18541;DHT22;9400;50.924;5.328;2023-06-22T06:38:58;21.80;99.90
18541;DHT22;9400;50.924;5.328;2023-06-22T06:41:25;21.80;99.90
18541;DHT22;9400;50.924;5.328;2023-06-22T06:43:53;21.60;99.90
18541;DHT22;9400;50.924;5.328;2023-06-22T06:46:20;21.70;99.90
18541;DHT22;9400;50.924;5.328;2023-06-22T06:48:48;21.90;99.90
18541;DHT22;9400;50.924;5.328;2023-06-22T06:51:15;21.80;99.90
18541;DHT22;9400;50.924;5.328;2023-06-22T06:53:46;21.90;99.90
18541;DHT22;9400;50.924;5.328;2023-06-22T06:56:14;22.10;99.90
18541;DHT22;9400;50.924;5.328;2023-06-22T06:58:41;22.20;99.90
18541;DHT22;9400;50.924;5.328;2023-06-22T07:01:13;22.30;99.90
18541;DHT22;9400;50.924;5.328;2023-06-22T07:03:41;22.20;99.90
18541;DHT22;9400;50.924;5.328;2023-06-22T07:06:08;22.30;99.90
18541;DHT22;9400;50.924;5.328;2023-06-22T07:08:36;22.30;99.90
18541;DHT22;9400;50.924;5.328;2023-06-22T07:11:07;22.30;99.90
18541;DHT22;9400;50.924;5.328;2023-06-22T07:13:34;22.40;99.90
18541;DHT22;9400;50.924;5.328;2023-06-22T07:16:02;22.50;99.90
18541;DHT22;9400;50.924;5.328;2023-06-22T07:18:29;22.50;99.90
18541;DHT22;9400;50.924;5.328;2023-06-22T07:20:57;22.30;99.90
18541;DHT22;9400;50.924;5.328;2023-06-22T07:23:24;22.30;99.90
18541;DHT22;9400;50.924;5.328;2023-06-22T07:25:52;22.20;99.90
18541;DHT22;9400;50.924;5.328;2023-06-22T07:28:21;22.40;99.90
18541;DHT22;9400;50.924;5.328;2023-06-22T07:30:48;22.10;99.90
18541;DHT22;9400;50.924;5.328;2023-06-22T07:33:17;22.30;99.90
18541;DHT22;9400;50.924;5.328;2023-06-22T07:35:45;22.50;99.90
18541;DHT22;9400;50.924;5.328;2023-06-22T07:38:14;22.50;99.90
18541;DHT22;9400;50.924;5.328;2023-06-22T07:40:42;22.40;99.90
18541;DHT22;9400;50.924;5.328;2023-06-22T07:43:10;22.40;99.90
18541;DHT22;9400;50.924;5.328;2023-06-22T07:45:39;22.50;99.90
18541;DHT22;9400;50.924;5.328;2023-06-22T07:48:10;22.50;99.90
18541;DHT22;9400;50.924;5.328;2023-06-22T07:50:38;22.40;99.90
18541;DHT22;9400;50.924;5.328;2023-06-22T07:53:05;22.60;99.90
18541;DHT22;9400;50.924;5.328;2023-06-22T07:55:33;22.80;99.90
18541;DHT22;9400;50.924;5.328;2023-06-22T07:58:00;22.80;99.90
18541;DHT22;9400;50.924;5.328;2023-06-22T08:00:28;22.90;99.90
18541;DHT22;9400;50.924;5.328;2023-06-22T08:02:56;23.20;99.90
18541;DHT22;9400;50.924;5.328;2023-06-22T08:05:24;23.10;99.90
18541;DHT22;9400;50.924;5.328;2023-06-22T08:07:52;23.00;99.90
18541;DHT22;9400;50.924;5.328;2023-06-22T08:10:20;23.20;99.90
18541;DHT22;9400;50.924;5.328;2023-06-22T08:12:48;23.50;99.90
18541;DHT22;9400;50.924;5.328;2023-06-22T08:15:15;23.60;99.90
18541;DHT22;9400;50.924;5.328;2023-06-22T08:17:44;23.80;99.90
18541;DHT22;9400;50.924;5.328;2023-06-22T08:20:13;24.10;99.90
18541;DHT22;9400;50.924;5.328;2023-06-22T08:22:42;24.30;99.90
18541;DHT22;9400;50.924;5.328;2023-06-22T08:25:10;24.30;99.90
18541;DHT22;9400;50.924;5.328;2023-06-22T08:27:38;24.30;99.90
18541;DHT22;9400;50.924;5.328;2023-06-22T08:30:07;24.30;99.90
18541;DHT22;9400;50.924;5.328;2023-06-22T08:32:37;24.30;99.90
18541;DHT22;9400;50.924;5.328;2023-06-22T08:35:05;24.50;99.90
18541;DHT22;9400;50.924;5.328;2023-06-22T08:37:36;24.40;99.90
18541;DHT22;9400;50.924;5.328;2023-06-22T08:40:06;24.50;99.90
18541;DHT22;9400;50.924;5.328;2023-06-22T08:42:35;24.70;99.90
18541;DHT22;9400;50.924;5.328;2023-06-22T08:45:04;24.70;99.90
18541;DHT22;9400;50.924;5.328;2023-06-22T08:47:32;25.00;99.90
18541;DHT22;9400;50.924;5.328;2023-06-22T08:49:59;25.00;99.90
18541;DHT22;9400;50.924;5.328;2023-06-22T08:52:28;25.00;99.90
18541;DHT22;9400;50.924;5.328;2023-06-22T08:54:57;25.00;99.90
18541;DHT22;9400;50.924;5.328;2023-06-22T08:57:25;24.90;99.90
18541;DHT22;9400;50.924;5.328;2023-06-22T08:59:52;25.00;99.90
18541;DHT22;9400;50.924;5.328;2023-06-22T09:02:24;25.00;99.90
18541;DHT22;9400;50.924;5.328;2023-06-22T09:04:51;24.70;99.90
18541;DHT22;9400;50.924;5.328;2023-06-22T09:07:21;24.50;99.90
18541;DHT22;9400;50.924;5.328;2023-06-22T09:09:50;24.60;99.90
18541;DHT22;9400;50.924;5.328;2023-06-22T09:12:19;24.50;99.90
18541;DHT22;9400;50.924;5.328;2023-06-22T09:14:51;24.70;99.90
18541;DHT22;9400;50.924;5.328;2023-06-22T09:17:19;24.70;99.90
18541;DHT22;9400;50.924;5.328;2023-06-22T09:19:46;24.20;99.90
18541;DHT22;9400;50.924;5.328;2023-06-22T09:22:14;24.20;99.90
18541;DHT22;9400;50.924;5.328;2023-06-22T09:24:42;24.20;99.90
18541;DHT22;9400;50.924;5.328;2023-06-22T09:27:10;24.20;99.90
18541;DHT22;9400;50.924;5.328;2023-06-22T09:29:39;24.50;99.90
18541;DHT22;9400;50.924;5.328;2023-06-22T09:32:07;24.60;99.90
18541;DHT22;9400;50.924;5.328;2023-06-22T09:34:34;24.50;99.90
18541;DHT22;9400;50.924;5.328;2023-06-22T09:37:02;24.50;99.90
18541;DHT22;9400;50.924;5.328;2023-06-22T09:39:29;24.50;99.90
18541;DHT22;9400;50.924;5.328;2023-06-22T09:41:58;24.40;99.90
18541;DHT22;9400;50.924;5.328;2023-06-22T09:44:26;24.50;99.90
18541;DHT22;9400;50.924;5.328;2023-06-22T09:46:55;24.40;99.90
18541;DHT22;9400;50.924;5.328;2023-06-22T09:49:23;24.40;99.90
18541;DHT22;9400;50.924;5.328;2023-06-22T09:51:51;24.40;99.90
18541;DHT22;9400;50.924;5.328;2023-06-22T09:54:18;24.30;99.90
18541;DHT22;9400;50.924;5.328;2023-06-22T09:56:46;24.30;99.90
18541;DHT22;9400;50.924;5.328;2023-06-22T09:59:13;24.10;99.90
18541;DHT22;9400;50.924;5.328;2023-06-22T10:01:41;24.30;99.90
18541;DHT22;9400;50.924;5.328;2023-06-22T10:04:10;24.30;99.90
18541;DHT22;9400;50.924;5.328;2023-06-22T10:06:38;24.30;99.90
18541;DHT22;9400;50.924;5.328;2023-06-22T10:09:07;24.30;99.90
18541;DHT22;9400;50.924;5.328;2023-06-22T10:11:35;24.30;99.90
18541;DHT22;9400;50.924;5.328;2023-06-22T10:14:05;24.20;99.90
18541;DHT22;9400;50.924;5.328;2023-06-22T10:16:36;24.00;99.90
18541;DHT22;9400;50.924;5.328;2023-06-22T10:19:05;23.70;99.90
18541;DHT22;9400;50.924;5.328;2023-06-22T10:21:38;23.60;99.90
18541;DHT22;9400;50.924;5.328;2023-06-22T10:24:11;23.50;99.90
18541;DHT22;9400;50.924;5.328;2023-06-22T10:26:41;23.20;99.90
18541;DHT22;9400;50.924;5.328;2023-06-22T10:29:12;23.10;99.90
18541;DHT22;9400;50.924;5.328;2023-06-22T10:31:43;22.90;99.90
18541;DHT22;9400;50.924;5.328;2023-06-22T10:34:12;22.80;99.90
18541;DHT22;9400;50.924;5.328;2023-06-22T10:36:44;22.80;99.90
18541;DHT22;9400;50.924;5.328;2023-06-22T10:39:15;22.50;99.90
18541;DHT22;9400;50.924;5.328;2023-06-22T10:41:46;22.40;99.90
18541;DHT22;9400;50.924;5.328;2023-06-22T10:44:15;22.30;99.90
18541;DHT22;9400;50.924;5.328;2023-06-22T10:46:44;22.30;99.90
18541;DHT22;9400;50.924;5.328;2023-06-22T10:49:17;22.40;99.90
18541;DHT22;9400;50.924;5.328;2023-06-22T10:51:53;22.30;99.90
18541;DHT22;9400;50.924;5.328;2023-06-22T10:54:22;22.40;99.90
18541;DHT22;9400;50.924;5.328;2023-06-22T10:56:51;22.50;99.90
18541;DHT22;9400;50.924;5.328;2023-06-22T10:59:19;22.60;99.90
18541;DHT22;9400;50.924;5.328;2023-06-22T11:01:49;22.60;99.90
18541;DHT22;9400;50.924;5.328;2023-06-22T11:04:17;22.80;99.90
18541;DHT22;9400;50.924;5.328;2023-06-22T11:06:45;22.80;99.90
18541;DHT22;9400;50.924;5.328;2023-06-22T11:09:15;22.70;99.90
18541;DHT22;9400;50.924;5.328;2023-06-22T11:11:46;22.80;99.90
18541;DHT22;9400;50.924;5.328;2023-06-22T11:14:14;22.90;99.90
18541;DHT22;9400;50.924;5.328;2023-06-22T11:16:42;22.80;99.90
18541;DHT22;9400;50.924;5.328;2023-06-22T11:19:10;22.90;99.90
18541;DHT22;9400;50.924;5.328;2023-06-22T11:21:38;23.20;99.90
18541;DHT22;9400;50.924;5.328;2023-06-22T11:24:06;23.30;99.90
18541;DHT22;9400;50.924;5.328;2023-06-22T11:26:36;23.50;99.90
18541;DHT22;9400;50.924;5.328;2023-06-22T11:29:03;23.40;99.90
18541;DHT22;9400;50.924;5.328;2023-06-22T11:31:31;23.40;99.90
18541;DHT22;9400;50.924;5.328;2023-06-22T11:33:59;23.40;99.90
18541;DHT22;9400;50.924;5.328;2023-06-22T11:36:27;23.60;99.90
18541;DHT22;9400;50.924;5.328;2023-06-22T11:38:55;23.50;99.90
18541;DHT22;9400;50.924;5.328;2023-06-22T11:41:22;23.40;99.90
18541;DHT22;9400;50.924;5.328;2023-06-22T11:43:52;23.30;99.90
18541;DHT22;9400;50.924;5.328;2023-06-22T11:46:19;23.40;99.90
18541;DHT22;9400;50.924;5.328;2023-06-22T11:48:47;23.10;99.90
18541;DHT22;9400;50.924;5.328;2023-06-22T11:51:14;22.80;99.90
18541;DHT22;9400;50.924;5.328;2023-06-22T11:53:43;22.60;99.90
18541;DHT22;9400;50.924;5.328;2023-06-22T11:56:10;22.50;99.90
18541;DHT22;9400;50.924;5.328;2023-06-22T11:58:38;22.30;99.90
18541;DHT22;9400;50.924;5.328;2023-06-22T12:01:07;22.30;99.90
18541;DHT22;9400;50.924;5.328;2023-06-22T12:03:34;22.30;99.90
18541;DHT22;9400;50.924;5.328;2023-06-22T12:06:01;22.00;99.90
18541;DHT22;9400;50.924;5.328;2023-06-22T12:08:29;21.90;99.90
18541;DHT22;9400;50.924;5.328;2023-06-22T12:10:57;21.90;99.90
18541;DHT22;9400;50.924;5.328;2023-06-22T12:13:24;21.80;99.90
18541;DHT22;9400;50.924;5.328;2023-06-22T12:15:52;21.90;99.90
18541;DHT22;9400;50.924;5.328;2023-06-22T12:18:21;22.00;99.90
18541;DHT22;9400;50.924;5.328;2023-06-22T12:20:49;22.00;99.90
18541;DHT22;9400;50.924;5.328;2023-06-22T12:23:17;21.70;99.90
18541;DHT22;9400;50.924;5.328;2023-06-22T12:25:45;21.70;99.90
18541;DHT22;9400;50.924;5.328;2023-06-22T12:28:13;21.60;99.90
18541;DHT22;9400;50.924;5.328;2023-06-22T12:30:40;21.70;99.90
18541;DHT22;9400;50.924;5.328;2023-06-22T12:33:08;21.70;99.90
18541;DHT22;9400;50.924;5.328;2023-06-22T12:35:38;21.90;99.90
18541;DHT22;9400;50.924;5.328;2023-06-22T12:38:06;21.70;99.90
18541;DHT22;9400;50.924;5.328;2023-06-22T12:40:35;21.60;99.90
18541;DHT22;9400;50.924;5.328;2023-06-22T12:43:02;21.60;99.90
18541;DHT22;9400;50.924;5.328;2023-06-22T12:45:30;21.50;99.90
18541;DHT22;9400;50.924;5.328;2023-06-22T12:47:59;21.40;99.90
18541;DHT22;9400;50.924;5.328;2023-06-22T12:50:27;21.40;99.90
18541;DHT22;9400;50.924;5.328;2023-06-22T12:52:57;21.40;99.90
18541;DHT22;9400;50.924;5.328;2023-06-22T12:55:24;21.40;99.90
18541;DHT22;9400;50.924;5.328;2023-06-22T12:57:52;21.20;99.90
18541;DHT22;9400;50.924;5.328;2023-06-22T13:00:20;21.30;99.90
18541;DHT22;9400;50.924;5.328;2023-06-22T13:02:48;21.40;99.90
18541;DHT22;9400;50.924;5.328;2023-06-22T13:05:16;21.40;99.90
18541;DHT22;9400;50.924;5.328;2023-06-22T13:07:44;21.30;99.90
18541;DHT22;9400;50.924;5.328;2023-06-22T13:10:14;21.10;99.90
18541;DHT22;9400;50.924;5.328;2023-06-22T13:12:42;21.20;99.90
18541;DHT22;9400;50.924;5.328;2023-06-22T13:15:10;21.30;99.90
18541;DHT22;9400;50.924;5.328;2023-06-22T13:17:38;21.10;99.90
18541;DHT22;9400;50.924;5.328;2023-06-22T13:20:07;20.80;99.90
18541;DHT22;9400;50.924;5.328;2023-06-22T13:22:36;20.70;99.90
18541;DHT22;9400;50.924;5.328;2023-06-22T13:25:10;20.70;99.90
18541;DHT22;9400;50.924;5.328;2023-06-22T13:27:41;20.70;99.90
18541;DHT22;9400;50.924;5.328;2023-06-22T13:30:10;20.60;99.90
18541;DHT22;9400;50.924;5.328;2023-06-22T13:32:38;20.50;99.90
18541;DHT22;9400;50.924;5.328;2023-06-22T13:35:08;20.40;99.90
18541;DHT22;9400;50.924;5.328;2023-06-22T13:37:37;20.40;99.90
18541;DHT22;9400;50.924;5.328;2023-06-22T13:40:08;20.40;99.90
18541;DHT22;9400;50.924;5.328;2023-06-22T13:42:37;20.40;99.90
18541;DHT22;9400;50.924;5.328;2023-06-22T13:45:09;20.30;99.90
18541;DHT22;9400;50.924;5.328;2023-06-22T13:47:38;20.20;99.90
18541;DHT22;9400;50.924;5.328;2023-06-22T13:50:07;20.30;99.90
18541;DHT22;9400;50.924;5.328;2023-06-22T13:52:37;20.40;99.90
18541;DHT22;9400;50.924;5.328;2023-06-22T13:55:06;20.40;99.90
18541;DHT22;9400;50.924;5.328;2023-06-22T13:57:37;20.30;99.90
18541;DHT22;9400;50.924;5.328;2023-06-22T14:00:09;20.30;99.90
18541;DHT22;9400;50.924;5.328;2023-06-22T14:02:39;20.40;99.90
18541;DHT22;9400;50.924;5.328;2023-06-22T14:05:08;20.40;99.90
18541;DHT22;9400;50.924;5.328;2023-06-22T14:07:37;20.20;99.90
18541;DHT22;9400;50.924;5.328;2023-06-22T14:10:07;20.00;99.90
18541;DHT22;9400;50.924;5.328;2023-06-22T14:12:35;20.00;99.90
18541;DHT22;9400;50.924;5.328;2023-06-22T14:15:05;20.00;99.90
18541;DHT22;9400;50.924;5.328;2023-06-22T14:17:36;20.00;99.90
18541;DHT22;9400;50.924;5.328;2023-06-22T14:20:06;20.00;99.90
18541;DHT22;9400;50.924;5.328;2023-06-22T14:22:35;19.90;99.90
18541;DHT22;9400;50.924;5.328;2023-06-22T14:25:06;19.80;99.90
18541;DHT22;9400;50.924;5.328;2023-06-22T14:27:35;19.80;99.90
18541;DHT22;9400;50.924;5.328;2023-06-22T14:30:04;19.80;99.90
18541;DHT22;9400;50.924;5.328;2023-06-22T14:32:36;19.60;99.90
18541;DHT22;9400;50.924;5.328;2023-06-22T14:35:05;19.70;99.90
18541;DHT22;9400;50.924;5.328;2023-06-22T14:37:35;19.70;99.90
18541;DHT22;9400;50.924;5.328;2023-06-22T14:40:05;19.60;99.90
18541;DHT22;9400;50.924;5.328;2023-06-22T14:42:35;19.60;99.90
18541;DHT22;9400;50.924;5.328;2023-06-22T14:45:05;19.60;99.90
18541;DHT22;9400;50.924;5.328;2023-06-22T14:47:37;19.60;99.90
18541;DHT22;9400;50.924;5.328;2023-06-22T14:50:06;19.50;99.90
18541;DHT22;9400;50.924;5.328;2023-06-22T14:52:35;19.50;99.90
18541;DHT22;9400;50.924;5.328;2023-06-22T14:55:06;19.40;99.90
18541;DHT22;9400;50.924;5.328;2023-06-22T14:57:36;19.40;99.90
18541;DHT22;9400;50.924;5.328;2023-06-22T15:00:06;19.40;99.90
18541;DHT22;9400;50.924;5.328;2023-06-22T15:02:38;19.30;99.90
18541;DHT22;9400;50.924;5.328;2023-06-22T15:05:08;19.30;99.90
18541;DHT22;9400;50.924;5.328;2023-06-22T15:07:38;19.30;99.90
18541;DHT22;9400;50.924;5.328;2023-06-22T15:10:09;19.40;99.90
18541;DHT22;9400;50.924;5.328;2023-06-22T15:12:38;19.40;99.90
18541;DHT22;9400;50.924;5.328;2023-06-22T15:15:08;19.30;99.90
18541;DHT22;9400;50.924;5.328;2023-06-22T15:17:40;19.20;99.90
18541;DHT22;9400;50.924;5.328;2023-06-22T15:20:09;19.10;99.90
18541;DHT22;9400;50.924;5.328;2023-06-22T15:22:43;19.10;99.90
18541;DHT22;9400;50.924;5.328;2023-06-22T15:25:13;19.00;99.90
18541;DHT22;9400;50.924;5.328;2023-06-22T15:27:41;19.00;99.90
18541;DHT22;9400;50.924;5.328;2023-06-22T15:30:11;19.00;99.90
18541;DHT22;9400;50.924;5.328;2023-06-22T15:32:43;19.00;99.90
18541;DHT22;9400;50.924;5.328;2023-06-22T15:35:13;18.90;99.90
18541;DHT22;9400;50.924;5.328;2023-06-22T15:37:44;18.90;99.90
18541;DHT22;9400;50.924;5.328;2023-06-22T15:40:15;18.90;99.90
18541;DHT22;9400;50.924;5.328;2023-06-22T15:42:44;18.90;99.90
18541;DHT22;9400;50.924;5.328;2023-06-22T15:45:14;18.90;99.90
18541;DHT22;9400;50.924;5.328;2023-06-22T15:47:45;18.90;99.90
18541;DHT22;9400;50.924;5.328;2023-06-22T15:50:14;18.90;99.90
18541;DHT22;9400;50.924;5.328;2023-06-22T15:52:44;18.90;99.90
18541;DHT22;9400;50.924;5.328;2023-06-22T15:55:18;19.00;99.90
18541;DHT22;9400;50.924;5.328;2023-06-22T15:57:47;19.00;99.90
18541;DHT22;9400;50.924;5.328;2023-06-22T16:00:17;18.90;99.90
18541;DHT22;9400;50.924;5.328;2023-06-22T16:02:50;18.80;99.90
18541;DHT22;9400;50.924;5.328;2023-06-22T16:05:19;18.80;99.90
18541;DHT22;9400;50.924;5.328;2023-06-22T16:07:48;18.90;99.90